Time;durP1;ratioP1;P1;durP2;ratioP2;P2;SDS_P1;SDS_P2;PMS_P1;PMS_P2;Temp;Humidity;BMP_temperature;BMP_pressure;BME280_temperature;BME280_humidity;BME280_pressure;Samples;Min_cycle;Max_cycle;Signal;HPM_P1;HPM_P2
2024/02/22 00:01:10;;;;;;;5.50;5.00;;;8.00;99.90;;;;;;5036747;28;20475;-60
2024/02/22 00:03:39;;;;;;;9.40;4.80;;;8.00;99.90;;;;;;5034244;28;21030;-59
2024/02/22 00:06:07;;;;;;;6.27;5.20;;;8.00;99.90;;;;;;5037069;28;20925;-58
2024/02/22 00:08:35;;;;;;;6.83;5.00;;;8.00;99.90;;;;;;5027874;28;22015;-58
2024/02/22 00:11:03;;;;;;;7.70;5.07;;;8.00;99.90;;;;;;5034877;28;20502;-59
2024/02/22 00:13:32;;;;;;;6.43;5.07;;;8.00;99.90;;;;;;5030425;28;20497;-58
2024/02/22 00:16:03;;;;;;;7.17;5.17;;;8.00;99.90;;;;;;5035704;28;20494;-57
2024/02/22 00:18:32;;;;;;;5.30;4.80;;;8.00;99.90;;;;;;5033109;28;20486;-58
2024/02/22 00:21:00;;;;;;;5.60;4.97;;;8.00;99.90;;;;;;5034602;28;20484;-58
2024/02/22 00:23:28;;;;;;;6.10;4.83;;;8.00;99.90;;;;;;5035805;28;20475;-58
2024/02/22 00:25:56;;;;;;;6.10;4.87;;;8.00;99.90;;;;;;5031784;28;20496;-59
2024/02/22 00:28:24;;;;;;;5.97;5.07;;;7.90;99.90;;;;;;5034108;28;20499;-58
2024/02/22 00:30:54;;;;;;;5.93;4.97;;;7.90;99.90;;;;;;5034034;28;21030;-58
2024/02/22 00:33:23;;;;;;;8.40;5.20;;;7.90;99.90;;;;;;5033963;28;20508;-59
2024/02/22 00:35:51;;;;;;;6.47;4.63;;;7.90;99.90;;;;;;5031501;28;21114;-58
2024/02/22 00:38:19;;;;;;;5.70;5.03;;;7.90;99.90;;;;;;5031129;28;20518;-59
2024/02/22 00:40:47;;;;;;;6.70;4.87;;;7.90;99.90;;;;;;5034275;28;20868;-59
2024/02/22 00:43:15;;;;;;;5.57;5.07;;;7.90;99.90;;;;;;5032674;28;20492;-59
2024/02/22 00:45:43;;;;;;;5.77;4.70;;;7.90;99.90;;;;;;5033791;28;20769;-59
2024/02/22 00:48:12;;;;;;;6.40;5.07;;;7.90;99.90;;;;;;5033674;28;20581;-59
2024/02/22 00:50:40;;;;;;;6.00;5.27;;;7.90;99.90;;;;;;5034072;28;20477;-59
2024/02/22 00:53:09;;;;;;;5.80;4.60;;;7.90;99.90;;;;;;5028993;28;20561;-59
2024/02/22 00:55:37;;;;;;;7.60;5.50;;;7.90;99.90;;;;;;5034815;28;20551;-59
2024/02/22 00:58:05;;;;;;;5.30;4.80;;;7.90;99.90;;;;;;5031830;28;20498;-58
2024/02/22 01:00:36;;;;;;;6.30;5.70;;;7.90;99.90;;;;;;5029895;28;20912;-59
2024/02/22 01:03:06;;;;;;;6.60;4.63;;;7.90;99.90;;;;;;5031801;28;20836;-58
2024/02/22 01:05:35;;;;;;;8.33;5.20;;;7.90;99.90;;;;;;5032046;28;20874;-59
2024/02/22 01:08:04;;;;;;;6.57;5.07;;;7.90;99.90;;;;;;5036505;28;20490;-59
2024/02/22 01:10:33;;;;;;;5.87;4.90;;;7.90;99.90;;;;;;5031981;28;20997;-58
2024/02/22 01:13:01;;;;;;;5.50;4.77;;;7.90;99.90;;;;;;5029359;28;20479;-58
2024/02/22 01:15:29;;;;;;;5.80;4.77;;;7.90;99.90;;;;;;5033397;28;20495;-59
2024/02/22 01:18:00;;;;;;;7.90;5.20;;;7.90;99.90;;;;;;5032826;28;20503;-58
2024/02/22 01:20:28;;;;;;;5.63;4.80;;;7.90;99.90;;;;;;5033900;28;20473;-59
2024/02/22 01:23:00;;;;;;;8.90;6.23;;;7.90;99.90;;;;;;5029543;28;21140;-58
2024/02/22 01:25:28;;;;;;;5.10;4.60;;;7.90;99.90;;;;;;5019206;28;20592;-59
2024/02/22 01:27:56;;;;;;;7.37;5.03;;;7.90;99.90;;;;;;5034123;28;20553;-59
2024/02/22 01:30:24;;;;;;;7.03;4.63;;;7.90;99.90;;;;;;5034349;28;20471;-58
2024/02/22 01:32:52;;;;;;;5.23;4.70;;;7.90;99.90;;;;;;5025174;28;20565;-58
2024/02/22 01:35:21;;;;;;;6.67;4.40;;;8.00;99.90;;;;;;5028271;28;20494;-59
2024/02/22 01:37:49;;;;;;;5.00;4.50;;;8.00;99.90;;;;;;5030972;28;20951;-59
2024/02/22 01:40:18;;;;;;;5.50;4.67;;;8.00;99.90;;;;;;5031137;28;20525;-58
2024/02/22 01:42:46;;;;;;;7.20;4.83;;;8.00;99.90;;;;;;5035350;28;20542;-58
2024/02/22 01:45:14;;;;;;;5.27;4.40;;;8.00;99.90;;;;;;5030798;28;20462;-59
2024/02/22 01:47:42;;;;;;;5.27;4.57;;;8.00;99.90;;;;;;5033891;28;20870;-57
2024/02/22 01:50:11;;;;;;;5.27;4.77;;;8.00;99.90;;;;;;5028003;28;20474;-58
2024/02/22 01:52:40;;;;;;;7.87;4.60;;;7.90;99.90;;;;;;5030046;28;20532;-59
2024/02/22 01:55:09;;;;;;;6.17;4.60;;;8.00;99.90;;;;;;5027127;28;20969;-57
2024/02/22 01:57:38;;;;;;;6.70;4.50;;;7.90;99.90;;;;;;5033380;28;21084;-59
2024/02/22 02:00:15;;;;;;;5.50;4.90;;;7.90;99.90;;;;;;5028759;28;21082;-59
2024/02/22 02:02:43;;;;;;;5.70;4.50;;;8.00;99.90;;;;;;5029146;28;20556;-59
2024/02/22 02:05:12;;;;;;;4.67;4.27;;;8.00;99.90;;;;;;5030617;28;21059;-59
2024/02/22 02:07:41;;;;;;;5.43;4.30;;;8.00;99.90;;;;;;5033869;28;20563;-59
2024/02/22 02:10:09;;;;;;;5.43;3.97;;;8.00;99.90;;;;;;5031438;28;20508;-59
2024/02/22 02:12:39;;;;;;;4.87;4.33;;;8.00;99.90;;;;;;5030570;28;20537;-59
2024/02/22 02:15:07;;;;;;;7.33;4.43;;;8.00;99.90;;;;;;5033202;28;20852;-59
2024/02/22 02:17:35;;;;;;;6.33;4.10;;;8.00;99.90;;;;;;5028334;28;21080;-59
2024/02/22 02:20:07;;;;;;;4.83;4.43;;;8.00;99.90;;;;;;5033852;28;20476;-59
2024/02/22 02:22:51;;;;;;;5.30;4.77;;;7.90;99.90;;;;;;5029106;28;20482;-59
2024/02/22 02:25:20;;;;;;;4.77;4.30;;;7.90;99.90;;;;;;5031171;28;20522;-59
2024/02/22 02:27:49;;;;;;;6.53;4.40;;;8.00;99.90;;;;;;5032618;28;20499;-59
2024/02/22 02:30:17;;;;;;;5.17;4.47;;;8.00;99.90;;;;;;5032965;28;20793;-59
2024/02/22 02:32:45;;;;;;;4.63;4.17;;;8.00;99.90;;;;;;5027286;28;20480;-59
2024/02/22 02:35:13;;;;;;;4.90;4.00;;;8.00;99.90;;;;;;5030519;28;20498;-59
2024/02/22 02:37:41;;;;;;;4.60;4.20;;;8.00;99.90;;;;;;5032073;28;20518;-59
2024/02/22 02:40:10;;;;;;;7.80;4.93;;;8.00;99.90;;;;;;5026377;28;20466;-59
2024/02/22 02:42:41;;;;;;;4.30;3.90;;;8.00;99.90;;;;;;5026926;28;20971;-59
2024/02/22 02:45:10;;;;;;;4.67;4.20;;;8.00;99.90;;;;;;5029676;28;20478;-59
2024/02/22 02:47:38;;;;;;;4.90;4.40;;;8.00;99.90;;;;;;5031528;28;20569;-58
2024/02/22 02:50:07;;;;;;;4.87;4.37;;;8.00;99.90;;;;;;5029452;28;21227;-58
2024/02/22 02:52:35;;;;;;;4.80;4.40;;;8.00;99.90;;;;;;5028250;28;20477;-59
2024/02/22 02:55:04;;;;;;;5.80;4.43;;;8.00;99.90;;;;;;5026066;28;20485;-56
2024/02/22 02:57:32;;;;;;;5.17;4.43;;;8.00;99.90;;;;;;5030125;28;20521;-58
2024/02/22 03:00:01;;;;;;;4.30;3.90;;;8.00;99.90;;;;;;5032279;28;20589;-58
2024/02/22 03:02:29;;;;;;;5.67;4.50;;;7.90;99.90;;;;;;5026309;28;20471;-59
2024/02/22 03:04:57;;;;;;;4.80;4.40;;;8.00;99.90;;;;;;5027870;28;20532;-58
2024/02/22 03:07:25;;;;;;;5.30;4.30;;;8.00;99.90;;;;;;5028053;28;21016;-58
2024/02/22 03:09:54;;;;;;;4.10;3.70;;;8.00;99.90;;;;;;5032127;28;20560;-58
2024/02/22 03:12:22;;;;;;;4.60;4.20;;;8.00;99.90;;;;;;5032967;28;20471;-58
2024/02/22 03:14:50;;;;;;;5.30;4.83;;;8.00;99.90;;;;;;5026856;28;20471;-58
2024/02/22 03:17:20;;;;;;;4.93;3.90;;;8.00;99.90;;;;;;5028683;28;20487;-58
2024/02/22 03:19:49;;;;;;;4.53;3.83;;;8.00;99.90;;;;;;5024501;28;20471;-58
2024/02/22 03:22:17;;;;;;;4.53;4.13;;;8.00;99.90;;;;;;5028270;28;20498;-57
2024/02/22 03:24:45;;;;;;;4.60;4.20;;;8.00;99.90;;;;;;5030311;28;20479;-59
2024/02/22 03:27:13;;;;;;;4.70;4.20;;;7.90;99.90;;;;;;5027906;28;20945;-59
2024/02/22 03:29:41;;;;;;;4.27;3.63;;;8.00;99.90;;;;;;5028241;28;20478;-59
2024/02/22 03:32:09;;;;;;;5.20;4.30;;;8.00;99.90;;;;;;5032176;28;20563;-59
2024/02/22 03:34:39;;;;;;;4.47;4.10;;;7.90;99.90;;;;;;5029591;28;20982;-58
2024/02/22 03:37:07;;;;;;;4.40;4.00;;;7.90;99.90;;;;;;5032280;28;20542;-58
2024/02/22 03:39:35;;;;;;;4.47;4.07;;;7.90;99.90;;;;;;5032610;28;20548;-59
2024/02/22 03:42:03;;;;;;;4.50;4.10;;;8.00;99.90;;;;;;5032671;28;20467;-59
2024/02/22 03:44:31;;;;;;;6.03;4.50;;;8.00;99.90;;;;;;5030910;28;20474;-58
2024/02/22 03:46:59;;;;;;;4.73;3.97;;;8.00;99.90;;;;;;5031179;28;20489;-59
2024/02/22 03:49:28;;;;;;;4.43;3.77;;;8.00;99.90;;;;;;5032042;28;20474;-59
2024/02/22 03:51:57;;;;;;;5.30;4.23;;;8.00;99.90;;;;;;5033416;28;20816;-58
2024/02/22 03:54:26;;;;;;;7.00;3.97;;;8.00;99.90;;;;;;5033225;28;20498;-58
2024/02/22 03:56:53;;;;;;;4.60;4.13;;;8.00;99.90;;;;;;5022968;28;20570;-60
2024/02/22 03:59:23;;;;;;;4.80;4.17;;;8.00;99.90;;;;;;5027987;28;20995;-59
2024/02/22 04:01:52;;;;;;;4.40;4.00;;;8.00;99.90;;;;;;5029556;28;20467;-58
2024/02/22 04:04:20;;;;;;;4.27;3.87;;;8.00;99.90;;;;;;5031290;28;20909;-59
2024/02/22 04:06:49;;;;;;;5.10;4.60;;;8.00;99.90;;;;;;5028777;28;20509;-59
2024/02/22 04:09:18;;;;;;;4.63;4.23;;;8.00;99.90;;;;;;5031246;28;21305;-59
2024/02/22 04:11:46;;;;;;;4.30;3.90;;;8.00;99.90;;;;;;5034144;28;20665;-59
2024/02/22 04:14:14;;;;;;;3.63;3.33;;;8.10;99.90;;;;;;5035932;28;20474;-59
2024/02/22 04:16:42;;;;;;;4.17;3.47;;;8.10;99.90;;;;;;5033510;28;20922;-59
2024/02/22 04:19:10;;;;;;;4.10;3.70;;;8.10;99.90;;;;;;5037524;28;20909;-59
2024/02/22 04:21:41;;;;;;;4.10;3.80;;;8.10;99.90;;;;;;5034155;28;20987;-59
2024/02/22 04:24:09;;;;;;;3.77;3.50;;;8.10;99.90;;;;;;5034666;28;20776;-58
2024/02/22 04:26:47;;;;;;;3.60;3.30;;;8.10;99.90;;;;;;5032585;28;20488;-59
2024/02/22 04:29:16;;;;;;;5.13;4.43;;;8.10;99.90;;;;;;5034045;28;20470;-58
2024/02/22 04:31:46;;;;;;;3.93;3.57;;;8.10;99.90;;;;;;5036783;28;20468;-58
2024/02/22 04:34:14;;;;;;;4.27;3.97;;;8.10;99.90;;;;;;5036148;28;20482;-58
2024/02/22 04:36:43;;;;;;;4.20;3.90;;;8.10;99.90;;;;;;5036734;28;20490;-59
2024/02/22 04:39:11;;;;;;;4.30;3.90;;;8.10;99.90;;;;;;5035706;28;20660;-58
2024/02/22 04:41:41;;;;;;;3.90;3.60;;;8.10;99.90;;;;;;5036153;28;20467;-57
2024/02/22 04:44:09;;;;;;;3.90;3.43;;;8.10;99.90;;;;;;5034441;28;20558;-58
2024/02/22 04:46:37;;;;;;;3.57;3.27;;;8.10;99.90;;;;;;5033603;28;20490;-58
2024/02/22 04:49:06;;;;;;;4.37;3.97;;;8.10;99.90;;;;;;5037730;28;20971;-58
2024/02/22 04:51:35;;;;;;;4.00;3.70;;;8.20;99.90;;;;;;5035545;28;20471;-58
2024/02/22 04:54:03;;;;;;;3.73;3.43;;;8.20;99.90;;;;;;5037144;28;20513;-59
2024/02/22 04:56:32;;;;;;;3.87;3.57;;;8.20;99.90;;;;;;5034065;28;20489;-57
2024/02/22 04:59:01;;;;;;;3.57;3.37;;;8.20;99.90;;;;;;5036250;28;20491;-58
2024/02/22 05:01:29;;;;;;;3.83;3.53;;;8.20;99.90;;;;;;5033703;28;20479;-57
2024/02/22 05:03:58;;;;;;;3.77;3.47;;;8.20;99.90;;;;;;5035021;28;20502;-58
2024/02/22 05:06:27;;;;;;;3.50;3.20;;;8.20;99.90;;;;;;5035166;28;20504;-58
2024/02/22 05:08:55;;;;;;;3.70;3.40;;;8.20;99.90;;;;;;5031680;28;20714;-58
2024/02/22 05:11:23;;;;;;;4.00;3.60;;;8.20;99.90;;;;;;5033789;28;20978;-58
2024/02/22 05:13:53;;;;;;;3.40;3.17;;;8.20;99.90;;;;;;5035310;28;20475;-58
2024/02/22 05:16:23;;;;;;;3.53;3.23;;;8.20;99.90;;;;;;5033409;28;20902;-58
2024/02/22 05:18:51;;;;;;;4.00;3.70;;;8.20;99.90;;;;;;5033407;28;20865;-58
2024/02/22 05:21:19;;;;;;;3.77;3.40;;;8.20;99.90;;;;;;5034566;28;20478;-58
2024/02/22 05:23:47;;;;;;;3.50;3.23;;;8.20;99.90;;;;;;5034968;28;20471;-57
2024/02/22 05:26:15;;;;;;;3.57;3.27;;;8.30;99.90;;;;;;5033929;28;20548;-58
2024/02/22 05:28:43;;;;;;;4.00;3.60;;;8.30;99.90;;;;;;5028254;28;20508;-57
2024/02/22 05:31:23;;;;;;;3.20;3.00;;;8.30;99.90;;;;;;5025900;28;20478;-58
2024/02/22 05:33:52;;;;;;;3.63;3.33;;;8.30;99.90;;;;;;5033514;28;20473;-59
2024/02/22 05:36:21;;;;;;;3.77;3.47;;;8.30;99.90;;;;;;5028729;28;20478;-59
2024/02/22 05:38:49;;;;;;;3.80;3.50;;;8.30;99.90;;;;;;5029831;28;20578;-58
2024/02/22 05:41:17;;;;;;;3.67;3.37;;;8.30;99.90;;;;;;5031579;28;20475;-57
2024/02/22 05:43:46;;;;;;;2.50;2.30;;;8.30;99.90;;;;;;5028420;28;20529;-58
2024/02/22 05:46:14;;;;;;;2.80;2.60;;;8.30;99.90;;;;;;5026710;28;20497;-59
2024/02/22 05:48:44;;;;;;;2.93;2.73;;;8.30;99.90;;;;;;5029962;28;20533;-59
2024/02/22 05:51:12;;;;;;;2.97;2.77;;;8.30;99.90;;;;;;5029807;28;20470;-59
2024/02/22 05:53:42;;;;;;;3.03;2.83;;;8.30;99.90;;;;;;5029739;28;20558;-59
2024/02/22 05:56:10;;;;;;;2.50;2.30;;;8.30;99.90;;;;;;5030842;28;20479;-59
2024/02/22 05:58:38;;;;;;;2.80;2.60;;;8.30;99.90;;;;;;5032797;28;20505;-58
2024/02/22 06:01:06;;;;;;;2.53;2.33;;;8.30;99.90;;;;;;5033276;28;20471;-57
2024/02/22 06:03:34;;;;;;;2.70;2.50;;;8.30;99.90;;;;;;5023055;28;20513;-57
2024/02/22 06:06:04;;;;;;;2.83;2.63;;;8.40;99.90;;;;;;5023373;28;20518;-59
2024/02/22 06:08:32;;;;;;;2.10;2.00;;;8.40;99.90;;;;;;5016537;28;20613;-57
2024/02/22 06:11:00;;;;;;;2.60;2.40;;;8.40;99.90;;;;;;5018276;28;20481;-59
2024/02/22 06:13:28;;;;;;;2.97;2.77;;;8.40;99.90;;;;;;5023507;28;20545;-58
2024/02/22 06:15:56;;;;;;;2.30;2.10;;;8.40;99.90;;;;;;5022300;28;20555;-58
2024/02/22 06:18:24;;;;;;;2.50;2.40;;;8.40;99.90;;;;;;5030835;28;20976;-59
2024/02/22 06:20:53;;;;;;;2.90;2.70;;;8.40;99.90;;;;;;5028526;28;20964;-59
2024/02/22 06:23:22;;;;;;;2.90;2.70;;;8.40;99.90;;;;;;5029837;28;20838;-58
2024/02/22 06:25:51;;;;;;;2.50;2.40;;;8.40;99.90;;;;;;5023433;28;21050;-59
2024/02/22 06:28:19;;;;;;;2.70;2.50;;;8.40;99.90;;;;;;5031782;28;20498;-57
2024/02/22 06:30:47;;;;;;;2.80;2.60;;;8.40;99.90;;;;;;5030025;28;20477;-58
2024/02/22 06:33:15;;;;;;;2.73;2.53;;;8.40;99.90;;;;;;5030221;28;20466;-59
2024/02/22 06:35:43;;;;;;;3.00;2.70;;;8.40;99.90;;;;;;5023863;28;20536;-58
2024/02/22 06:38:11;;;;;;;2.90;2.70;;;8.40;99.90;;;;;;5027063;28;20498;-58
2024/02/22 06:40:49;;;;;;;2.40;2.30;;;8.50;99.90;;;;;;5031912;28;20839;-58
2024/02/22 06:43:18;;;;;;;2.50;2.30;;;8.50;99.90;;;;;;5035672;28;20462;-60
2024/02/22 06:45:47;;;;;;;3.30;3.10;;;8.50;99.90;;;;;;5012354;28;20494;-60
2024/02/22 06:48:15;;;;;;;2.93;2.63;;;8.50;99.90;;;;;;5028032;28;20497;-60
2024/02/22 06:50:43;;;;;;;3.13;2.90;;;8.50;99.90;;;;;;5023623;28;20471;-60
2024/02/22 06:53:11;;;;;;;2.93;2.73;;;8.50;99.90;;;;;;5031979;28;20561;-60
2024/02/22 06:55:41;;;;;;;3.20;3.00;;;8.50;99.90;;;;;;5030494;28;20479;-59
2024/02/22 06:58:10;;;;;;;3.13;2.93;;;8.60;99.90;;;;;;5028557;28;21012;-60
2024/02/22 07:00:38;;;;;;;3.27;2.97;;;8.60;99.90;;;;;;5027487;28;20474;-59
2024/02/22 07:03:07;;;;;;;3.60;3.00;;;8.60;99.90;;;;;;5028951;28;21003;-60
2024/02/22 07:05:34;;;;;;;3.10;2.90;;;8.60;99.90;;;;;;5025878;28;20566;-59
2024/02/22 07:08:03;;;;;;;4.07;3.40;;;8.60;99.90;;;;;;5029407;28;20545;-60
2024/02/22 07:10:31;;;;;;;3.90;3.60;;;8.60;99.90;;;;;;5029212;28;20468;-59
2024/02/22 07:13:01;;;;;;;3.77;3.47;;;8.60;99.90;;;;;;5033264;28;20566;-59
2024/02/22 07:15:30;;;;;;;4.47;4.07;;;8.60;99.90;;;;;;5031374;28;20474;-60
2024/02/22 07:17:58;;;;;;;4.27;3.87;;;8.70;99.90;;;;;;5034545;28;21059;-59
2024/02/22 07:20:26;;;;;;;5.40;4.33;;;8.70;99.90;;;;;;5031862;28;20485;-59
2024/02/22 07:22:54;;;;;;;3.83;3.53;;;8.70;99.90;;;;;;5033021;28;20861;-60
2024/02/22 07:25:23;;;;;;;4.90;4.20;;;8.70;99.90;;;;;;5030818;28;20475;-60
2024/02/22 07:27:51;;;;;;;4.90;4.27;;;8.70;99.90;;;;;;5026125;28;20554;-60
2024/02/22 07:30:21;;;;;;;4.57;4.17;;;8.80;99.90;;;;;;5031456;28;20472;-60
2024/02/22 07:32:49;;;;;;;5.57;5.07;;;8.80;99.90;;;;;;5035717;28;20485;-58
2024/02/22 07:35:17;;;;;;;5.27;4.77;;;8.80;99.90;;;;;;5026651;28;20477;-58
2024/02/22 07:37:46;;;;;;;5.90;4.73;;;8.80;99.90;;;;;;5032438;28;21031;-60
2024/02/22 07:40:14;;;;;;;6.70;5.77;;;8.80;99.90;;;;;;5034634;28;21163;-59
2024/02/22 07:42:42;;;;;;;5.83;5.00;;;8.80;99.90;;;;;;5035186;28;20867;-59
2024/02/22 07:45:11;;;;;;;7.70;6.23;;;8.80;99.90;;;;;;5035592;28;20474;-59
2024/02/22 07:47:40;;;;;;;6.70;5.60;;;8.80;99.90;;;;;;5036807;28;20505;-59
2024/02/22 07:50:10;;;;;;;7.97;5.90;;;8.80;99.90;;;;;;5035885;28;21208;-59
2024/02/22 07:52:40;;;;;;;5.47;4.97;;;8.80;99.90;;;;;;5037919;28;20493;-59
2024/02/22 07:55:09;;;;;;;5.90;5.30;;;8.80;99.90;;;;;;5036502;28;20473;-59
2024/02/22 07:57:37;;;;;;;6.27;5.67;;;8.80;99.90;;;;;;5035124;28;23030;-59
2024/02/22 08:00:07;;;;;;;8.37;5.90;;;8.80;99.90;;;;;;5028924;28;20462;-59
2024/02/22 08:02:35;;;;;;;7.60;6.23;;;8.80;99.90;;;;;;5032622;28;20775;-59
2024/02/22 08:05:07;;;;;;;8.10;6.23;;;8.90;99.90;;;;;;5033818;28;20602;-58
2024/02/22 08:07:35;;;;;;;6.57;5.70;;;8.90;99.90;;;;;;5034181;28;20491;-59
2024/02/22 08:10:05;;;;;;;8.20;6.27;;;8.90;99.90;;;;;;5032707;28;20993;-59
2024/02/22 08:12:33;;;;;;;7.47;6.13;;;8.90;99.90;;;;;;5035399;28;20462;-58
2024/02/22 08:15:03;;;;;;;8.13;6.30;;;8.90;99.90;;;;;;5036408;28;20646;-58
2024/02/22 08:17:33;;;;;;;7.63;6.50;;;9.00;99.90;;;;;;5038630;28;20502;-58
2024/02/22 08:20:01;;;;;;;10.57;6.63;;;9.00;99.90;;;;;;5035022;28;20846;-59
2024/02/22 08:22:31;;;;;;;9.50;7.03;;;9.00;99.90;;;;;;5038274;28;20539;-59
2024/02/22 08:24:59;;;;;;;8.00;6.87;;;9.00;99.90;;;;;;5033281;28;20477;-58
2024/02/22 08:27:27;;;;;;;9.10;7.07;;;9.10;99.90;;;;;;5035982;28;20505;-58
2024/02/22 08:29:55;;;;;;;7.60;6.60;;;9.20;99.90;;;;;;5031868;28;20555;-58
2024/02/22 08:32:23;;;;;;;9.13;7.33;;;9.20;99.90;;;;;;5034042;28;20470;-58
2024/02/22 08:34:51;;;;;;;8.87;7.17;;;9.20;99.90;;;;;;5032995;28;20463;-59
2024/02/22 08:37:19;;;;;;;10.67;7.40;;;9.20;99.90;;;;;;5034288;28;20499;-59
2024/02/22 08:39:48;;;;;;;8.13;7.03;;;9.20;99.90;;;;;;5032926;28;20522;-59
2024/02/22 08:42:16;;;;;;;12.53;7.57;;;9.30;99.90;;;;;;5037730;28;20569;-59
2024/02/22 08:44:44;;;;;;;11.40;7.40;;;9.30;99.90;;;;;;5034613;28;20475;-59
2024/02/22 08:47:12;;;;;;;10.03;7.60;;;9.30;99.90;;;;;;5035343;28;20497;-59
2024/02/22 08:49:40;;;;;;;10.73;7.93;;;9.30;99.90;;;;;;5033612;28;20467;-59
2024/02/22 08:52:08;;;;;;;9.30;7.50;;;9.30;99.90;;;;;;5032860;28;21092;-59
2024/02/22 08:54:37;;;;;;;10.80;7.80;;;9.30;99.90;;;;;;5031128;28;21081;-59
2024/02/22 08:57:07;;;;;;;8.90;7.40;;;9.30;99.90;;;;;;5032452;28;20498;-59
2024/02/22 08:59:36;;;;;;;10.87;6.70;;;9.40;99.90;;;;;;5035551;28;21015;-59
2024/02/22 09:02:04;;;;;;;10.30;8.00;;;9.30;99.90;;;;;;5029034;28;20550;-59
2024/02/22 09:04:33;;;;;;;10.90;8.33;;;9.30;99.90;;;;;;5036986;28;20998;-59
2024/02/22 09:07:01;;;;;;;10.60;7.80;;;9.40;99.90;;;;;;5032993;28;20568;-59
2024/02/22 09:09:29;;;;;;;8.33;7.40;;;9.40;99.90;;;;;;5031931;28;21181;-58
2024/02/22 09:11:57;;;;;;;9.97;8.17;;;9.40;99.90;;;;;;5032988;28;20586;-57
2024/02/22 09:14:27;;;;;;;9.90;7.13;;;9.40;99.90;;;;;;5036178;28;20481;-59
2024/02/22 09:16:55;;;;;;;11.47;8.00;;;9.40;99.90;;;;;;5034527;28;20479;-59
2024/02/22 09:19:25;;;;;;;8.97;8.00;;;9.40;99.90;;;;;;5031025;28;20490;-58
2024/02/22 09:21:59;;;;;;;10.13;7.80;;;9.40;99.90;;;;;;5031046;28;20474;-59
2024/02/22 09:24:27;;;;;;;10.23;8.23;;;9.40;99.90;;;;;;5028030;28;20462;-59
2024/02/22 09:26:55;;;;;;;13.70;8.07;;;9.40;99.90;;;;;;5031731;28;20479;-59
2024/02/22 09:29:24;;;;;;;11.43;8.90;;;9.40;99.90;;;;;;5031756;28;20468;-59
2024/02/22 09:31:55;;;;;;;10.90;8.23;;;9.40;99.90;;;;;;5031418;28;20494;-59
2024/02/22 09:34:24;;;;;;;9.53;8.13;;;9.50;99.90;;;;;;5035990;28;20479;-59
2024/02/22 09:36:52;;;;;;;11.30;8.43;;;9.50;99.90;;;;;;5034271;28;20491;-59
2024/02/22 09:39:20;;;;;;;8.60;7.30;;;9.60;99.90;;;;;;5036993;28;20521;-59
2024/02/22 09:41:49;;;;;;;11.20;8.60;;;9.60;99.90;;;;;;5034544;28;20466;-59
2024/02/22 09:44:18;;;;;;;10.93;8.63;;;9.60;99.90;;;;;;5028910;28;20545;-62
2024/02/22 09:46:53;;;;;;;9.17;7.50;;;9.70;99.90;;;;;;5033830;28;21056;-59
2024/02/22 09:49:23;;;;;;;10.00;7.80;;;9.70;99.90;;;;;;5028341;28;20473;-59
2024/02/22 09:51:53;;;;;;;9.50;7.90;;;9.70;99.90;;;;;;5030445;28;20951;-58
2024/02/22 09:54:23;;;;;;;8.37;6.33;;;9.70;99.90;;;;;;5033473;28;20467;-59
2024/02/22 09:56:53;;;;;;;9.07;6.80;;;9.80;99.90;;;;;;5032583;28;20483;-59
2024/02/22 09:59:21;;;;;;;7.10;6.27;;;9.80;99.90;;;;;;5032184;28;20490;-58
2024/02/22 10:01:50;;;;;;;7.87;6.50;;;9.80;99.90;;;;;;5031478;28;20466;-59
2024/02/22 10:04:21;;;;;;;8.27;7.23;;;9.90;99.90;;;;;;5031412;28;20477;-59
2024/02/22 10:06:51;;;;;;;7.30;6.33;;;9.90;99.90;;;;;;5021136;28;20983;-59
2024/02/22 10:09:19;;;;;;;8.47;6.70;;;9.90;99.90;;;;;;5028838;28;20466;-59
2024/02/22 10:11:48;;;;;;;6.97;6.00;;;10.00;99.90;;;;;;5035120;28;20494;-59
2024/02/22 10:14:16;;;;;;;6.97;6.27;;;10.00;99.90;;;;;;5031606;28;20474;-59
2024/02/22 10:16:45;;;;;;;7.43;6.67;;;10.00;99.90;;;;;;5034817;28;21054;-59
2024/02/22 10:19:15;;;;;;;7.07;6.37;;;10.00;99.90;;;;;;5035331;28;20522;-58
2024/02/22 10:21:45;;;;;;;6.83;6.07;;;10.00;99.90;;;;;;5031318;28;20565;-59
2024/02/22 10:24:14;;;;;;;7.67;6.23;;;10.10;99.90;;;;;;5034316;28;20470;-59
2024/02/22 10:26:42;;;;;;;7.87;6.47;;;10.10;99.90;;;;;;5029844;28;20489;-58
2024/02/22 10:29:12;;;;;;;8.30;6.53;;;10.10;99.90;;;;;;5032679;28;20505;-58
2024/02/22 10:31:45;;;;;;;6.80;6.03;;;10.10;99.90;;;;;;5035741;28;20501;-59
2024/02/22 10:34:14;;;;;;;7.27;6.53;;;10.20;99.90;;;;;;5031836;28;20467;-59
2024/02/22 10:36:43;;;;;;;7.33;6.63;;;10.20;99.90;;;;;;5032447;28;20495;-60
2024/02/22 10:39:12;;;;;;;6.60;5.90;;;10.20;99.90;;;;;;5033301;28;20934;-59
2024/02/22 10:41:41;;;;;;;7.43;6.10;;;10.30;99.90;;;;;;5028030;28;20563;-59
2024/02/22 10:44:09;;;;;;;6.20;5.20;;;10.30;99.90;;;;;;5033034;28;20961;-59
2024/02/22 10:46:39;;;;;;;6.07;5.40;;;10.30;99.90;;;;;;5032001;28;21113;-60
2024/02/22 10:49:10;;;;;;;6.00;5.40;;;10.40;99.90;;;;;;5034403;28;20475;-59
2024/02/22 10:51:40;;;;;;;7.20;5.60;;;10.40;99.90;;;;;;5034385;28;20507;-59
2024/02/22 10:54:11;;;;;;;6.37;5.77;;;10.40;99.90;;;;;;5033078;28;20502;-60
2024/02/22 10:56:43;;;;;;;7.83;5.40;;;10.40;99.90;;;;;;5030273;28;20879;-60
2024/02/22 10:59:14;;;;;;;5.63;5.03;;;10.40;99.90;;;;;;5035637;28;20494;-58
2024/02/22 11:01:43;;;;;;;6.63;5.20;;;10.40;99.90;;;;;;5029134;28;20479;-59
2024/02/22 11:04:13;;;;;;;5.80;5.20;;;10.40;99.90;;;;;;5023686;28;20745;-59
2024/02/22 11:06:43;;;;;;;7.00;5.93;;;10.40;99.90;;;;;;5032378;28;20488;-59
2024/02/22 11:09:22;;;;;;;6.70;6.03;;;10.40;99.90;;;;;;5028888;28;20529;-59
2024/02/22 11:11:52;;;;;;;8.27;6.93;;;10.40;99.90;;;;;;5032455;28;20550;-59
2024/02/22 11:14:28;;;;;;;6.90;6.30;;;10.40;99.90;;;;;;5032978;28;20558;-59
2024/02/22 11:17:05;;;;;;;7.63;6.47;;;10.40;99.90;;;;;;5036677;28;20590;-58
2024/02/22 11:19:33;;;;;;;8.47;6.67;;;10.40;99.90;;;;;;5035954;28;21091;-59
2024/02/22 11:22:01;;;;;;;8.70;7.03;;;10.40;99.90;;;;;;5037807;28;20863;-59
2024/02/22 11:24:29;;;;;;;7.70;6.60;;;10.40;99.90;;;;;;5037061;28;20554;-59
2024/02/22 11:26:59;;;;;;;7.93;6.63;;;10.40;99.90;;;;;;5031864;28;20470;-59
2024/02/22 11:29:29;;;;;;;9.27;6.60;;;10.40;99.90;;;;;;5036556;28;20525;-59
2024/02/22 11:31:59;;;;;;;8.13;7.00;;;10.40;99.90;;;;;;5036454;28;20553;-60
2024/02/22 11:34:28;;;;;;;8.57;7.00;;;10.40;99.90;;;;;;5038351;28;20467;-59
2024/02/22 11:36:57;;;;;;;7.77;6.90;;;10.40;99.90;;;;;;5038600;28;20571;-60
2024/02/22 11:39:27;;;;;;;8.10;6.70;;;10.40;99.90;;;;;;5034774;28;20472;-58
2024/02/22 11:41:55;;;;;;;8.77;6.77;;;10.40;99.90;;;;;;5035555;28;20547;-59
2024/02/22 11:44:24;;;;;;;8.33;7.20;;;10.50;99.90;;;;;;5037855;28;20960;-59
2024/02/22 11:46:52;;;;;;;9.00;7.50;;;10.50;99.90;;;;;;5036767;28;20889;-58
2024/02/22 11:49:21;;;;;;;9.37;7.43;;;10.50;99.90;;;;;;5036225;28;20985;-59
2024/02/22 11:51:51;;;;;;;11.37;8.50;;;10.50;99.90;;;;;;5037937;28;20469;-61
2024/02/22 11:54:21;;;;;;;11.80;8.70;;;10.50;99.90;;;;;;5028871;28;22386;-61
2024/02/22 11:56:49;;;;;;;9.83;8.00;;;10.50;99.90;;;;;;5035292;28;20573;-59
2024/02/22 11:59:17;;;;;;;9.83;7.87;;;10.50;99.90;;;;;;5034251;28;20561;-59
2024/02/22 12:01:47;;;;;;;8.90;7.20;;;10.50;99.90;;;;;;5036428;28;21178;-59
2024/02/22 12:04:15;;;;;;;9.30;7.30;;;10.60;99.90;;;;;;5034979;28;20550;-59
2024/02/22 12:06:44;;;;;;;10.07;7.30;;;10.60;99.90;;;;;;5037722;28;20511;-59
2024/02/22 12:09:13;;;;;;;8.57;7.20;;;10.70;99.90;;;;;;5035250;28;21009;-59
2024/02/22 12:11:42;;;;;;;9.90;7.83;;;10.70;99.90;;;;;;5036628;28;20466;-59
2024/02/22 12:14:14;;;;;;;8.70;7.03;;;10.90;99.90;;;;;;5036920;28;20907;-59
2024/02/22 12:16:42;;;;;;;10.50;7.73;;;11.00;99.90;;;;;;5031004;28;20545;-59
2024/02/22 12:19:15;;;;;;;8.00;7.00;;;11.40;99.90;;;;;;5034468;28;20475;-59
2024/02/22 12:21:46;;;;;;;8.67;6.87;;;12.20;99.90;;;;;;5036779;28;20487;-59
2024/02/22 12:24:13;;;;;;;10.30;7.20;;;13.00;99.90;;;;;;5034547;28;20540;-60
2024/02/22 12:26:42;;;;;;;8.40;7.03;;;14.00;99.90;;;;;;5027953;28;20505;-60
2024/02/22 12:29:10;;;;;;;7.50;6.00;;;15.60;99.90;;;;;;5036126;28;20578;-60
2024/02/22 12:31:38;;;;;;;7.27;5.77;;;16.60;99.90;;;;;;5033601;28;20485;-59
2024/02/22 12:34:07;;;;;;;7.60;5.87;;;17.20;99.90;;;;;;5031460;28;20474;-59
2024/02/22 12:36:36;;;;;;;6.23;5.63;;;16.90;99.90;;;;;;5029134;28;20532;-59
2024/02/22 12:39:04;;;;;;;8.10;6.03;;;16.10;99.90;;;;;;5034338;28;20493;-61
2024/02/22 12:41:32;;;;;;;7.97;5.73;;;15.70;99.90;;;;;;5035968;28;20545;-59
2024/02/22 12:44:00;;;;;;;9.10;6.03;;;15.40;99.90;;;;;;5032324;28;20490;-60
2024/02/22 12:46:28;;;;;;;7.93;6.23;;;14.90;99.90;;;;;;5030687;28;20515;-60
2024/02/22 12:48:56;;;;;;;6.70;6.00;;;14.50;99.90;;;;;;5037082;28;20505;-58
2024/02/22 12:51:24;;;;;;;8.40;6.20;;;14.60;99.90;;;;;;5031352;28;20474;-60
2024/02/22 12:53:54;;;;;;;6.53;5.50;;;15.50;99.90;;;;;;5035456;28;21206;-60
2024/02/22 12:56:23;;;;;;;6.13;5.33;;;16.50;99.90;;;;;;5030816;28;20490;-60
2024/02/22 12:58:53;;;;;;;5.97;4.97;;;16.60;99.90;;;;;;5029922;28;20501;-60
2024/02/22 13:01:21;;;;;;;6.13;5.10;;;16.00;99.90;;;;;;5034512;28;20494;-60